createdAt,value
2018-08-31T00:01:48.437Z,12.80
2018-08-31T00:06:32.176Z,10.80
2018-08-31T00:09:23.505Z,10.60
2018-08-31T00:12:02.072Z,10.47
2018-08-31T00:14:29.210Z,8.57
2018-08-31T00:16:56.360Z,10.00
2018-08-31T00:19:23.523Z,11.53
2018-08-31T00:21:50.756Z,11.47
2018-08-31T00:24:29.401Z,12.27
2018-08-31T00:28:09.825Z,13.10
2018-08-31T00:30:48.532Z,14.07
2018-08-31T00:34:26.715Z,12.43
2018-08-31T00:37:51.513Z,13.07
2018-08-31T00:41:04.783Z,14.90
2018-08-31T00:45:44.515Z,16.87
2018-08-31T00:48:11.741Z,12.80
2018-08-31T00:50:38.910Z,13.70
2018-08-31T00:53:06.572Z,14.17
2018-08-31T00:55:33.959Z,13.50
2018-08-31T00:58:01.175Z,14.43
2018-08-31T01:00:29.371Z,13.50
2018-08-31T01:02:56.579Z,12.83
2018-08-31T01:05:23.760Z,13.60
2018-08-31T01:07:50.988Z,12.63
2018-08-31T01:10:20.511Z,12.77
2018-08-31T01:12:47.807Z,13.70
2018-08-31T01:15:15.001Z,13.23
2018-08-31T01:17:42.136Z,12.93
2018-08-31T01:20:09.425Z,13.80
2018-08-31T01:22:36.745Z,14.83
2018-08-31T01:25:04.856Z,13.33
2018-08-31T01:27:32.019Z,14.73
2018-08-31T01:29:59.112Z,15.73
2018-08-31T01:32:26.205Z,14.53
2018-08-31T01:34:53.451Z,16.77
2018-08-31T01:37:20.595Z,17.87
2018-08-31T01:39:47.751Z,18.13
2018-08-31T01:42:14.929Z,17.57
2018-08-31T01:44:42.108Z,17.87
2018-08-31T01:47:09.320Z,16.80
2018-08-31T01:49:36.530Z,16.90
2018-08-31T01:52:03.804Z,17.33
2018-08-31T01:54:30.972Z,18.17
2018-08-31T01:56:58.065Z,16.77
2018-08-31T01:59:25.173Z,17.77
2018-08-31T02:01:52.261Z,18.80
2018-08-31T02:04:19.393Z,16.40
2018-08-31T02:06:46.664Z,16.73
2018-08-31T02:09:16.825Z,18.33
2018-08-31T02:11:44.220Z,17.23
2018-08-31T02:14:11.355Z,16.60
2018-08-31T02:16:38.520Z,18.67
2018-08-31T02:19:05.623Z,19.20
2018-08-31T02:21:32.810Z,18.67
2018-08-31T02:24:00.365Z,18.07
2018-08-31T02:26:27.872Z,18.77
2018-08-31T02:28:54.992Z,20.07
2018-08-31T02:31:22.448Z,17.77
2018-08-31T02:33:49.584Z,19.50
2018-08-31T02:36:16.737Z,18.37
2018-08-31T02:38:44.022Z,17.57
2018-08-31T02:41:11.260Z,19.33
2018-08-31T02:43:38.608Z,17.30
2018-08-31T02:46:05.891Z,15.47
2018-08-31T02:48:33.082Z,13.80
2018-08-31T02:51:00.413Z,13.07
2018-08-31T02:53:27.548Z,12.87
2018-08-31T02:55:54.686Z,13.23
2018-08-31T02:58:21.956Z,12.50
2018-08-31T03:00:49.086Z,11.47
2018-08-31T03:03:16.239Z,12.13
2018-08-31T03:05:43.513Z,12.10
2018-08-31T03:08:10.607Z,12.53
2018-08-31T03:10:37.704Z,12.93
2018-08-31T03:13:04.982Z,12.63
2018-08-31T03:15:32.080Z,13.07
2018-08-31T03:17:59.300Z,14.20
2018-08-31T03:20:26.503Z,13.03
2018-08-31T03:22:53.614Z,13.47
2018-08-31T03:25:20.882Z,12.40
2018-08-31T03:27:48.009Z,14.43
2018-08-31T03:30:15.125Z,14.83
2018-08-31T03:32:42.377Z,15.50
2018-08-31T03:35:09.599Z,14.50
2018-08-31T03:37:36.758Z,15.17
2018-08-31T03:40:04.512Z,14.00
2018-08-31T03:42:31.642Z,14.07
2018-08-31T03:44:58.833Z,13.50
2018-08-31T03:47:25.992Z,14.20
2018-08-31T03:49:53.108Z,12.30
2018-08-31T03:52:20.401Z,12.37
2018-08-31T03:54:47.577Z,13.47
2018-08-31T03:57:15.325Z,13.00
2018-08-31T03:59:42.564Z,13.60
2018-08-31T04:02:09.810Z,13.53
2018-08-31T04:04:36.945Z,13.37
2018-08-31T04:07:04.181Z,12.80
2018-08-31T04:09:31.257Z,12.70
2018-08-31T04:11:58.461Z,13.30
2018-08-31T04:14:25.640Z,14.17
2018-08-31T04:16:52.757Z,13.17
2018-08-31T04:19:19.893Z,14.10
2018-08-31T04:21:46.977Z,13.60
2018-08-31T04:24:15.197Z,13.73
2018-08-31T04:26:42.467Z,12.00
2018-08-31T04:29:10.205Z,12.23
2018-08-31T04:31:37.415Z,10.67
2018-08-31T04:34:04.728Z,11.03
2018-08-31T04:36:31.864Z,11.90
2018-08-31T04:38:59.029Z,12.77
2018-08-31T04:41:26.273Z,10.80
2018-08-31T04:43:53.694Z,10.40
2018-08-31T04:46:21.153Z,9.87
2018-08-31T04:48:48.344Z,10.10
2018-08-31T04:51:15.541Z,10.77
2018-08-31T04:53:42.683Z,10.83
2018-08-31T04:56:09.840Z,10.30
2018-08-31T04:58:36.960Z,10.17
2018-08-31T05:01:04.182Z,10.23
2018-08-31T05:03:31.340Z,11.70
2018-08-31T05:05:58.448Z,10.33
2018-08-31T05:08:25.704Z,11.10
2018-08-31T05:10:52.866Z,10.93
2018-08-31T05:13:20.045Z,10.43
2018-08-31T05:15:47.165Z,10.83
2018-08-31T05:18:14.360Z,10.90
2018-08-31T05:20:41.608Z,11.10
2018-08-31T05:23:08.844Z,10.77
2018-08-31T05:25:35.953Z,11.37
2018-08-31T05:28:03.124Z,10.43
2018-08-31T05:30:30.248Z,10.07
2018-08-31T05:32:57.738Z,9.10
2018-08-31T05:35:24.949Z,9.27
2018-08-31T05:37:52.041Z,10.30
2018-08-31T05:40:19.156Z,9.93
2018-08-31T05:42:46.483Z,10.00
2018-08-31T05:45:13.714Z,9.77
2018-08-31T05:47:40.905Z,9.40
2018-08-31T05:50:08.108Z,8.93
2018-08-31T05:52:35.289Z,8.80
2018-08-31T05:55:02.459Z,9.97
2018-08-31T05:57:29.589Z,10.40
2018-08-31T05:59:56.711Z,11.00
2018-08-31T06:02:23.931Z,11.27
2018-08-31T06:04:51.057Z,10.30
2018-08-31T06:07:18.241Z,11.80
2018-08-31T06:09:45.616Z,12.00
2018-08-31T06:12:12.736Z,12.33
2018-08-31T06:14:40.040Z,10.43
2018-08-31T06:17:07.850Z,12.27
2018-08-31T06:19:35.056Z,10.40
2018-08-31T06:22:02.145Z,12.03
2018-08-31T06:24:29.244Z,11.80
2018-08-31T06:26:56.393Z,12.80
2018-08-31T06:29:23.633Z,12.50
2018-08-31T06:31:50.812Z,17.00
2018-08-31T06:34:17.967Z,14.50
2018-08-31T06:36:45.296Z,13.13
2018-08-31T06:39:12.460Z,11.00
2018-08-31T06:41:39.556Z,12.60
2018-08-31T06:44:06.832Z,11.80
2018-08-31T06:46:34.009Z,14.00
2018-08-31T06:49:01.228Z,13.40
2018-08-31T06:51:28.477Z,12.47
2018-08-31T06:53:55.592Z,11.40
2018-08-31T06:56:22.809Z,12.20
2018-08-31T06:58:49.970Z,11.57
2018-08-31T07:01:17.243Z,11.70
2018-08-31T07:03:45.119Z,11.90
2018-08-31T07:06:12.248Z,11.50
2018-08-31T07:08:39.381Z,11.60
2018-08-31T07:11:06.570Z,11.50
2018-08-31T07:13:33.685Z,12.00
2018-08-31T07:16:00.855Z,11.17
2018-08-31T07:18:28.057Z,12.10
2018-08-31T07:20:55.178Z,13.20
2018-08-31T07:23:22.480Z,12.67
2018-08-31T07:25:49.740Z,12.10
2018-08-31T07:28:16.853Z,14.73
2018-08-31T07:30:44.116Z,12.10
2018-08-31T07:33:11.267Z,12.97
2018-08-31T07:35:38.394Z,12.30
2018-08-31T07:38:05.614Z,12.50
2018-08-31T07:40:32.692Z,12.00
2018-08-31T07:42:59.848Z,13.03
2018-08-31T07:45:26.982Z,12.83
2018-08-31T07:47:54.192Z,12.60
2018-08-31T07:50:21.321Z,11.90
2018-08-31T07:52:48.536Z,12.37
2018-08-31T07:55:15.735Z,11.90
2018-08-31T07:57:42.988Z,10.47
2018-08-31T08:00:10.124Z,11.63
2018-08-31T08:02:37.297Z,10.53
2018-08-31T08:05:05.447Z,12.67
2018-08-31T08:07:32.689Z,10.93
2018-08-31T08:09:59.804Z,10.50
2018-08-31T08:12:26.937Z,10.50
2018-08-31T08:14:54.103Z,10.73
2018-08-31T08:17:21.335Z,10.33
2018-08-31T08:19:48.541Z,10.50
2018-08-31T08:22:15.668Z,10.00
2018-08-31T08:24:42.876Z,10.13
2018-08-31T08:27:10.056Z,11.37
2018-08-31T08:29:37.169Z,10.27
2018-08-31T08:32:04.399Z,8.03
2018-08-31T08:34:31.512Z,9.93
2018-08-31T08:36:58.709Z,8.93
2018-08-31T08:39:26.295Z,9.30
2018-08-31T08:41:53.496Z,9.40
2018-08-31T08:44:20.804Z,9.00
2018-08-31T08:46:47.995Z,8.00
2018-08-31T08:49:15.109Z,9.80
2018-08-31T08:51:42.252Z,8.80
2018-08-31T08:54:09.372Z,9.57
2018-08-31T08:56:36.477Z,9.50
2018-08-31T08:59:03.789Z,7.60
2018-08-31T09:01:31.004Z,6.90
2018-08-31T09:03:58.135Z,6.27
2018-08-31T09:06:25.384Z,6.90
2018-08-31T09:08:52.572Z,6.27
2018-08-31T09:11:19.747Z,6.50
2018-08-31T09:13:47.089Z,5.40
2018-08-31T09:16:14.481Z,5.97
2018-08-31T09:18:41.628Z,6.07
2018-08-31T09:21:08.753Z,7.13
2018-08-31T09:23:35.893Z,6.70
2018-08-31T09:26:05.641Z,6.93
2018-08-31T09:28:32.773Z,6.23
2018-08-31T09:31:00.151Z,8.27
2018-08-31T09:33:27.348Z,7.70
2018-08-31T09:35:54.546Z,7.30
2018-08-31T09:38:21.677Z,8.17
2018-08-31T09:40:48.833Z,7.60
2018-08-31T09:43:16.111Z,7.63
2018-08-31T09:45:43.240Z,7.90
2018-08-31T09:48:10.493Z,6.57
2018-08-31T09:50:37.668Z,6.67
2018-08-31T09:53:04.877Z,6.90
2018-08-31T09:55:32.086Z,6.87
2018-08-31T09:57:59.251Z,8.40
2018-08-31T10:01:29.847Z,8.70
2018-08-31T10:04:00.331Z,7.73
2018-08-31T10:06:27.555Z,7.07
2018-08-31T10:08:54.704Z,7.20
2018-08-31T10:11:21.853Z,7.53
2018-08-31T10:13:48.991Z,7.03
2018-08-31T10:16:16.285Z,6.60
2018-08-31T10:18:43.530Z,6.70
2018-08-31T10:21:10.715Z,8.10
2018-08-31T10:23:37.897Z,7.20
2018-08-31T10:26:05.115Z,5.73
2018-08-31T10:28:32.390Z,7.57
2018-08-31T10:30:59.666Z,7.20
2018-08-31T10:33:26.794Z,6.77
2018-08-31T10:35:54.021Z,7.13
2018-08-31T10:38:21.224Z,6.40
2018-08-31T10:40:48.383Z,6.10
2018-08-31T10:43:15.860Z,6.57
2018-08-31T10:45:42.994Z,7.07
2018-08-31T10:48:10.164Z,7.87
2018-08-31T10:50:44.379Z,6.23
2018-08-31T10:53:11.524Z,6.60
2018-08-31T10:55:38.641Z,6.10
2018-08-31T10:58:06.148Z,5.90
2018-08-31T11:00:33.273Z,6.30
2018-08-31T11:03:00.600Z,6.60
2018-08-31T11:05:28.560Z,7.43
2018-08-31T11:07:55.684Z,9.67
2018-08-31T11:10:22.918Z,6.63
2018-08-31T11:12:50.168Z,6.13
2018-08-31T11:15:17.347Z,7.30
2018-08-31T11:17:44.704Z,7.47
2018-08-31T11:20:11.959Z,6.70
2018-08-31T11:22:39.120Z,5.80
2018-08-31T11:25:06.384Z,7.70
2018-08-31T11:27:33.634Z,6.50
2018-08-31T11:30:00.795Z,7.17
2018-08-31T11:32:28.244Z,5.07
2018-08-31T11:34:55.357Z,6.20
2018-08-31T11:37:22.637Z,6.40
2018-08-31T11:42:23.536Z,6.00
2018-08-31T11:44:50.729Z,5.60
2018-08-31T11:47:17.938Z,5.87
2018-08-31T11:49:45.825Z,6.57
2018-08-31T11:52:13.085Z,7.43
2018-08-31T11:54:40.233Z,6.53
2018-08-31T11:57:07.444Z,5.80
2018-08-31T11:59:34.616Z,7.03
2018-08-31T12:02:02.107Z,6.23
2018-08-31T12:04:29.281Z,7.00
2018-08-31T12:06:56.456Z,8.00
2018-08-31T12:09:23.632Z,6.30
2018-08-31T12:11:50.815Z,6.40
2018-08-31T12:14:17.934Z,5.77
2018-08-31T12:16:45.104Z,5.90
2018-08-31T12:19:12.369Z,8.80
2018-08-31T12:21:39.520Z,7.30
2018-08-31T12:24:06.761Z,7.00
2018-08-31T12:26:34.115Z,6.30
2018-08-31T12:29:01.269Z,7.10
2018-08-31T12:31:28.455Z,6.60
2018-08-31T12:33:55.661Z,6.87
2018-08-31T12:36:22.927Z,6.87
2018-08-31T12:38:50.116Z,6.00
2018-08-31T12:41:17.264Z,7.13
2018-08-31T12:43:44.495Z,6.30
2018-08-31T12:46:11.754Z,6.87
2018-08-31T12:48:39.265Z,6.37
2018-08-31T12:51:06.392Z,7.70
2018-08-31T12:53:33.725Z,6.30
2018-08-31T12:56:00.861Z,6.63
2018-08-31T12:58:28.045Z,7.93
2018-08-31T13:00:55.222Z,6.40
2018-08-31T13:03:22.364Z,7.20
2018-08-31T13:05:49.475Z,6.63
2018-08-31T13:08:16.637Z,7.90
2018-08-31T13:10:43.813Z,8.30
2018-08-31T13:13:11.140Z,8.90
2018-08-31T13:15:38.330Z,6.30
2018-08-31T13:18:05.632Z,6.70
2018-08-31T13:20:32.844Z,6.93
2018-08-31T13:23:00.004Z,6.93
2018-08-31T13:25:27.164Z,5.57
2018-08-31T13:27:54.411Z,7.00
2018-08-31T13:30:21.592Z,6.53
2018-08-31T13:32:55.565Z,7.40
2018-08-31T13:35:22.669Z,7.10
2018-08-31T13:37:49.924Z,7.30
2018-08-31T13:40:17.263Z,7.40
2018-08-31T13:42:44.409Z,7.63
2018-08-31T13:45:11.624Z,7.70
2018-08-31T13:47:38.812Z,6.10
2018-08-31T13:50:06.033Z,7.10
2018-08-31T13:52:33.238Z,7.20
2018-08-31T13:55:00.531Z,7.60
2018-08-31T13:57:27.748Z,7.73
2018-08-31T13:59:54.941Z,7.50
2018-08-31T14:02:22.116Z,7.40
2018-08-31T14:04:49.223Z,7.73
2018-08-31T14:07:16.579Z,6.43
2018-08-31T14:09:43.688Z,8.53
2018-08-31T14:12:10.792Z,8.40
2018-08-31T14:14:38.083Z,8.50
2018-08-31T14:17:05.253Z,8.97
2018-08-31T14:19:32.378Z,9.20
2018-08-31T14:21:59.491Z,10.00
2018-08-31T14:24:26.628Z,10.67
2018-08-31T14:26:53.833Z,10.57
2018-08-31T14:29:21.088Z,10.33
2018-08-31T14:31:48.284Z,11.40
2018-08-31T14:34:15.607Z,11.77
2018-08-31T14:36:42.825Z,12.57
2018-08-31T14:39:10.236Z,11.43
2018-08-31T14:41:37.426Z,11.23
2018-08-31T14:44:05.345Z,13.53
2018-08-31T14:46:32.461Z,16.17
2018-08-31T14:48:59.572Z,13.60
2018-08-31T14:51:26.739Z,15.37
2018-08-31T14:53:54.906Z,20.07
2018-08-31T14:56:22.177Z,15.90
2018-08-31T14:58:49.325Z,14.20
2018-08-31T15:01:16.469Z,13.70
2018-08-31T15:03:43.791Z,14.57
2018-08-31T15:06:10.976Z,13.50
2018-08-31T15:08:38.252Z,11.87
2018-08-31T15:11:05.466Z,13.77
2018-08-31T15:13:32.641Z,13.87
2018-08-31T15:15:59.872Z,12.63
2018-08-31T15:18:27.134Z,13.37
2018-08-31T15:20:54.263Z,12.57
2018-08-31T15:23:21.552Z,14.23
2018-08-31T15:25:48.670Z,12.17
2018-08-31T15:28:15.754Z,12.90
2018-08-31T15:30:43.045Z,14.03
2018-08-31T15:33:10.263Z,13.23
2018-08-31T15:35:37.557Z,13.47
2018-08-31T15:38:04.933Z,14.73
2018-08-31T15:40:32.084Z,13.40
2018-08-31T15:42:59.262Z,13.40
2018-08-31T15:45:26.409Z,14.70
2018-08-31T15:47:53.531Z,14.17
2018-08-31T15:50:20.821Z,12.67
2018-08-31T15:52:47.987Z,14.30
2018-08-31T15:55:15.087Z,15.40
2018-08-31T15:57:42.309Z,14.60
2018-08-31T16:00:10.008Z,15.10
2018-08-31T16:02:37.380Z,12.97
2018-08-31T16:05:04.865Z,13.30
2018-08-31T16:07:32.008Z,12.70
2018-08-31T16:09:59.171Z,12.60
2018-08-31T16:12:26.388Z,12.87
2018-08-31T16:14:53.613Z,12.27
2018-08-31T16:17:20.860Z,12.10
2018-08-31T16:19:48.225Z,12.53
2018-08-31T16:22:15.336Z,13.07
2018-08-31T16:24:42.497Z,13.03
2018-08-31T16:27:09.636Z,12.67
2018-08-31T16:29:36.825Z,13.27
2018-08-31T16:32:04.018Z,13.33
2018-08-31T16:34:32.104Z,14.10
2018-08-31T16:36:59.244Z,13.13
2018-08-31T16:39:26.469Z,13.37
2018-08-31T16:41:53.606Z,11.57
2018-08-31T16:44:20.798Z,13.73
2018-08-31T16:46:48.064Z,15.33
2018-08-31T16:49:15.188Z,10.90
2018-08-31T16:51:42.376Z,13.00
2018-08-31T16:54:09.620Z,11.10
2018-08-31T16:56:36.720Z,12.00
2018-08-31T16:59:04.248Z,11.80
2018-08-31T17:01:31.478Z,11.63
2018-08-31T17:03:58.613Z,11.73
2018-08-31T17:06:25.799Z,11.67
2018-08-31T17:08:52.916Z,10.53
2018-08-31T17:11:20.156Z,10.87
2018-08-31T17:13:47.765Z,11.70
2018-08-31T17:16:14.933Z,9.90
2018-08-31T17:18:42.077Z,9.73
2018-08-31T17:21:09.208Z,11.40
2018-08-31T17:23:36.355Z,11.37
2018-08-31T17:26:03.593Z,12.30
2018-08-31T17:28:36.353Z,10.47
2018-08-31T17:31:09.430Z,10.93
2018-08-31T17:33:42.397Z,11.67
2018-08-31T17:36:15.534Z,10.37
2018-08-31T17:38:42.760Z,10.50
2018-08-31T17:41:10.025Z,10.13
2018-08-31T17:43:37.183Z,10.20
2018-08-31T17:46:04.408Z,9.90
2018-08-31T17:48:31.657Z,10.73
2018-08-31T17:50:58.788Z,11.40
2018-08-31T17:53:25.960Z,11.60
2018-08-31T17:55:53.152Z,9.23
2018-08-31T17:58:20.233Z,10.27
2018-08-31T18:00:47.593Z,10.10
2018-08-31T18:03:14.842Z,12.20
2018-08-31T18:05:42.124Z,10.40
2018-08-31T18:08:09.517Z,9.90
2018-08-31T18:10:36.652Z,10.90
2018-08-31T18:13:03.915Z,9.60
2018-08-31T18:15:31.179Z,11.90
2018-08-31T18:17:58.245Z,11.70
2018-08-31T18:20:25.560Z,8.73
2018-08-31T18:22:52.707Z,8.93
2018-08-31T18:25:19.866Z,8.50
2018-08-31T18:27:47.157Z,8.20
2018-08-31T18:30:14.621Z,8.77
2018-08-31T18:32:41.779Z,10.30
2018-08-31T18:35:09.029Z,8.37
2018-08-31T18:37:36.185Z,9.10
2018-08-31T18:40:04.196Z,8.97
2018-08-31T18:42:31.424Z,8.23
2018-08-31T18:44:58.621Z,7.13
2018-08-31T18:47:25.720Z,7.80
2018-08-31T18:49:53.039Z,8.67
2018-08-31T18:52:20.309Z,8.57
2018-08-31T18:54:47.469Z,8.00
2018-08-31T18:57:14.720Z,8.23
2018-08-31T18:59:41.876Z,8.53
2018-08-31T19:02:09.020Z,9.27
2018-08-31T19:04:36.219Z,8.70
2018-08-31T19:07:03.440Z,8.87
2018-08-31T19:09:30.480Z,8.37
2018-08-31T19:11:57.586Z,9.87
2018-08-31T19:14:24.736Z,10.10
2018-08-31T19:16:51.943Z,10.33
2018-08-31T19:19:19.081Z,10.23
2018-08-31T19:21:46.356Z,10.23
2018-08-31T19:24:13.540Z,9.63
2018-08-31T19:26:41.001Z,10.20
2018-08-31T19:29:08.158Z,9.83
2018-08-31T19:31:35.627Z,8.70
2018-08-31T19:34:02.816Z,9.10
2018-08-31T19:36:29.949Z,9.90
2018-08-31T19:38:57.324Z,9.60
2018-08-31T19:41:24.476Z,9.87
2018-08-31T19:43:51.655Z,10.30
2018-08-31T19:46:18.793Z,9.80
2018-08-31T19:48:46.216Z,10.70
2018-08-31T19:51:13.419Z,10.60
2018-08-31T19:53:41.050Z,10.73
2018-08-31T19:56:08.112Z,12.30
2018-08-31T19:58:35.326Z,10.23
2018-08-31T20:01:02.540Z,11.00
2018-08-31T20:03:29.677Z,10.70
2018-08-31T20:05:56.885Z,11.10
2018-08-31T20:08:24.005Z,10.10
2018-08-31T20:10:51.156Z,10.10
2018-08-31T20:13:18.380Z,10.80
2018-08-31T20:15:45.479Z,9.93
2018-08-31T20:18:12.851Z,9.30
2018-08-31T20:20:40.117Z,9.27
2018-08-31T20:23:07.245Z,10.03
2018-08-31T20:25:34.380Z,9.30
2018-08-31T20:28:01.555Z,9.40
2018-08-31T20:30:28.787Z,9.80
2018-08-31T20:32:55.988Z,8.90
2018-08-31T20:35:23.100Z,9.47
2018-08-31T20:37:50.204Z,12.13
2018-08-31T20:40:17.465Z,9.70
2018-08-31T20:42:45.008Z,8.70
2018-08-31T20:45:12.181Z,10.50
2018-08-31T20:47:39.378Z,10.53
2018-08-31T20:50:06.585Z,9.90
2018-08-31T20:52:33.807Z,10.13
2018-08-31T20:55:00.983Z,9.83
2018-08-31T20:57:28.191Z,9.50
2018-08-31T20:59:56.082Z,9.90
2018-08-31T21:02:23.273Z,10.00
2018-08-31T21:04:50.344Z,9.73
2018-08-31T21:07:17.599Z,10.87
2018-08-31T21:09:44.796Z,11.00
2018-08-31T21:12:12.020Z,9.40
2018-08-31T21:14:39.243Z,11.10
2018-08-31T21:17:06.428Z,11.67
2018-08-31T21:19:33.701Z,10.43
2018-08-31T21:22:00.818Z,9.33
2018-08-31T21:24:27.945Z,10.23
2018-08-31T21:26:55.228Z,11.83
2018-08-31T21:29:22.500Z,10.20
2018-08-31T21:31:49.648Z,10.13
2018-08-31T21:34:16.948Z,10.03
2018-08-31T21:36:44.127Z,9.40
2018-08-31T21:39:11.333Z,9.60
2018-08-31T21:41:38.766Z,9.67
2018-08-31T21:44:05.954Z,9.00
2018-08-31T21:46:33.144Z,9.93
2018-08-31T21:49:00.287Z,8.83
2018-08-31T21:51:27.457Z,9.60
2018-08-31T21:53:54.656Z,8.47
2018-08-31T21:56:21.860Z,10.53
2018-08-31T21:58:49.124Z,8.80
2018-08-31T22:01:22.060Z,10.13
2018-08-31T22:03:49.194Z,8.93
2018-08-31T22:06:16.548Z,9.77
2018-08-31T22:08:43.659Z,8.97
2018-08-31T22:11:10.807Z,7.87
2018-08-31T22:13:38.044Z,9.57
2018-08-31T22:16:05.416Z,8.93
2018-08-31T22:18:32.565Z,8.50
2018-08-31T22:20:59.892Z,9.10
2018-08-31T22:23:27.141Z,7.97
2018-08-31T22:25:54.484Z,9.97
2018-08-31T22:28:21.606Z,9.27
2018-08-31T22:30:48.776Z,9.37
2018-08-31T22:33:16.039Z,9.50
2018-08-31T22:35:43.185Z,9.20
2018-08-31T22:38:10.301Z,8.60
2018-08-31T22:40:37.519Z,9.50
2018-08-31T22:43:04.792Z,8.10
2018-08-31T22:45:31.913Z,9.30
2018-08-31T22:47:59.212Z,8.73
2018-08-31T22:50:26.342Z,9.50
2018-08-31T22:52:53.541Z,8.60
2018-08-31T22:55:20.816Z,8.57
2018-08-31T22:57:47.980Z,8.23
2018-08-31T23:00:15.227Z,9.30
2018-08-31T23:02:42.340Z,7.60
2018-08-31T23:05:09.532Z,9.13
2018-08-31T23:07:42.268Z,10.07
2018-08-31T23:10:09.467Z,9.30
2018-08-31T23:12:36.656Z,9.50
2018-08-31T23:15:04.149Z,8.67
2018-08-31T23:17:31.319Z,8.80
2018-08-31T23:19:59.245Z,9.60
2018-08-31T23:22:27.500Z,8.77
2018-08-31T23:24:57.017Z,9.37
2018-08-31T23:27:24.168Z,9.40
2018-08-31T23:29:51.358Z,11.03
2018-08-31T23:32:18.552Z,9.13
2018-08-31T23:34:45.681Z,10.63
2018-08-31T23:37:13.024Z,8.83
2018-08-31T23:39:40.183Z,10.33
2018-08-31T23:42:07.440Z,9.60
2018-08-31T23:44:34.641Z,11.70
2018-08-31T23:47:01.921Z,10.40
2018-08-31T23:49:29.106Z,11.03
2018-08-31T23:51:56.218Z,12.40
2018-08-31T23:54:23.308Z,11.17
2018-08-31T23:56:50.493Z,11.53
2018-08-31T23:59:17.627Z,11.40
